createdAt,value
2023-05-18T00:00:02.656Z,1017.66
2023-05-18T00:01:02.556Z,1017.67
2023-05-18T00:02:02.898Z,1017.70
2023-05-18T00:03:02.098Z,1017.70
2023-05-18T00:04:01.880Z,1017.71
2023-05-18T00:05:01.895Z,1017.72
2023-05-18T00:06:02.272Z,1017.65
2023-05-18T00:07:01.988Z,1017.70
2023-05-18T00:08:03.071Z,1017.65
2023-05-18T00:09:02.532Z,1017.63
2023-05-18T00:10:02.477Z,1017.65
2023-05-18T00:11:02.884Z,1017.65
2023-05-18T00:12:02.508Z,1017.65
2023-05-18T00:13:01.536Z,1017.63
2023-05-18T00:14:02.120Z,1017.64
2023-05-18T00:15:01.933Z,1017.63
2023-05-18T00:16:01.878Z,1017.64
2023-05-18T00:17:02.081Z,1017.60
2023-05-18T00:18:01.594Z,1017.60
2023-05-18T00:19:01.547Z,1017.63
2023-05-18T00:20:01.601Z,1017.62
2023-05-18T00:21:02.393Z,1017.65
2023-05-18T00:22:01.791Z,1017.64
2023-05-18T00:23:02.562Z,1017.61
2023-05-18T00:24:02.169Z,1017.65
2023-05-18T00:25:02.425Z,1017.63
2023-05-18T00:26:02.281Z,1017.63
2023-05-18T00:27:02.087Z,1017.66
2023-05-18T00:28:01.924Z,1017.65
2023-05-18T00:29:01.747Z,1017.66
2023-05-18T00:30:02.119Z,1017.66
2023-05-18T00:31:01.997Z,1017.67
2023-05-18T00:32:02.309Z,1017.67
2023-05-18T00:33:02.277Z,1017.67
2023-05-18T00:34:01.912Z,1017.68
2023-05-18T00:35:01.926Z,1017.67
2023-05-18T00:36:02.155Z,1017.67
2023-05-18T00:37:01.981Z,1017.68
2023-05-18T00:38:02.746Z,1017.67
2023-05-18T00:39:02.193Z,1017.67
2023-05-18T00:40:02.394Z,1017.70
2023-05-18T00:41:02.236Z,1017.68
2023-05-18T00:42:02.839Z,1017.68
2023-05-18T00:43:02.210Z,1017.66
2023-05-18T00:44:02.061Z,1017.65
2023-05-18T00:45:01.940Z,1017.66
2023-05-18T00:46:02.445Z,1017.66
2023-05-18T00:47:02.164Z,1017.67
2023-05-18T00:48:01.763Z,1017.64
2023-05-18T00:49:01.627Z,1017.62
2023-05-18T00:50:01.467Z,1017.65
2023-05-18T00:51:01.657Z,1017.62
2023-05-18T00:52:01.393Z,1017.63
2023-05-18T00:53:02.048Z,1017.64
2023-05-18T00:54:01.685Z,1017.66
2023-05-18T00:55:02.051Z,1017.67
2023-05-18T00:56:01.877Z,1017.62
2023-05-18T00:57:02.273Z,1017.65
2023-05-18T00:58:02.703Z,1017.66
2023-05-18T00:59:02.288Z,1017.62
2023-05-18T01:00:02.514Z,1017.62
2023-05-18T01:01:02.473Z,1017.62
2023-05-18T01:02:02.392Z,1017.61
2023-05-18T01:03:03.577Z,1017.58
2023-05-18T01:04:02.972Z,1017.59
2023-05-18T01:05:03.133Z,1017.57
2023-05-18T01:06:02.627Z,1017.60
2023-05-18T01:07:02.622Z,1017.59
2023-05-18T01:08:03.306Z,1017.64
2023-05-18T01:09:03.493Z,1017.61
2023-05-18T01:10:03.522Z,1017.63
2023-05-18T01:11:03.504Z,1017.60
2023-05-18T01:12:03.108Z,1017.60
2023-05-18T01:13:02.762Z,1017.59
2023-05-18T01:14:02.464Z,1017.58
2023-05-18T01:15:02.441Z,1017.58
2023-05-18T01:16:02.611Z,1017.53
2023-05-18T01:17:02.584Z,1017.53
2023-05-18T01:18:02.977Z,1017.55
2023-05-18T01:19:02.676Z,1017.57
2023-05-18T01:20:03.109Z,1017.54
2023-05-18T01:21:03.090Z,1017.56
2023-05-18T01:22:03.181Z,1017.56
2023-05-18T01:23:02.739Z,1017.54
2023-05-18T01:24:02.744Z,1017.56
2023-05-18T01:25:02.820Z,1017.59
2023-05-18T01:26:02.706Z,1017.57
2023-05-18T01:27:03.182Z,1017.57
2023-05-18T01:28:03.446Z,1017.59
2023-05-18T01:29:03.070Z,1017.55
2023-05-18T01:30:03.470Z,1017.58
2023-05-18T01:31:03.298Z,1017.58
2023-05-18T01:32:03.528Z,1017.55
2023-05-18T01:33:02.907Z,1017.57
2023-05-18T01:34:02.616Z,1017.58
2023-05-18T01:35:02.891Z,1017.55
2023-05-18T01:36:02.751Z,1017.59
2023-05-18T01:37:02.794Z,1017.54
2023-05-18T01:38:03.331Z,1017.51
2023-05-18T01:39:03.314Z,1017.50
2023-05-18T01:40:03.408Z,1017.53
2023-05-18T01:41:03.452Z,1017.54
2023-05-18T01:42:03.346Z,1017.52
2023-05-18T01:43:02.914Z,1017.50
2023-05-18T01:44:02.645Z,1017.50
2023-05-18T01:45:02.779Z,1017.51
2023-05-18T01:46:02.410Z,1017.50
2023-05-18T01:47:02.926Z,1017.53
2023-05-18T01:48:03.192Z,1017.56
2023-05-18T01:49:02.872Z,1017.54
2023-05-18T01:50:02.757Z,1017.55
2023-05-18T01:51:02.692Z,1017.54
2023-05-18T01:52:02.568Z,1017.59
2023-05-18T01:53:02.703Z,1017.56
2023-05-18T01:54:02.693Z,1017.61
2023-05-18T01:55:03.260Z,1017.63
2023-05-18T01:56:02.847Z,1017.56
2023-05-18T01:57:02.751Z,1017.58
2023-05-18T01:58:03.324Z,1017.59
2023-05-18T01:59:02.975Z,1017.59
2023-05-18T02:00:02.998Z,1017.59
2023-05-18T02:01:02.978Z,1017.58
2023-05-18T02:02:03.439Z,1017.55
2023-05-18T02:03:02.844Z,1017.52
2023-05-18T02:04:02.856Z,1017.57
2023-05-18T02:05:02.652Z,1017.54
2023-05-18T02:06:02.214Z,1017.54
2023-05-18T02:07:02.505Z,1017.55
2023-05-18T02:08:03.149Z,1017.58
2023-05-18T02:09:02.821Z,1017.56
2023-05-18T02:10:03.006Z,1017.53
2023-05-18T02:11:02.913Z,1017.57
2023-05-18T02:12:02.835Z,1017.53
2023-05-18T02:13:01.830Z,1017.54
2023-05-18T02:14:02.417Z,1017.55
2023-05-18T02:15:01.997Z,1017.56
2023-05-18T02:16:01.815Z,1017.57
2023-05-18T02:17:02.012Z,1017.55
2023-05-18T02:18:02.296Z,1017.59
2023-05-18T02:19:02.540Z,1017.55
2023-05-18T02:20:02.521Z,1017.56
2023-05-18T02:21:02.714Z,1017.58
2023-05-18T02:22:02.792Z,1017.56
2023-05-18T02:23:03.079Z,1017.58
2023-05-18T02:24:03.048Z,1017.58
2023-05-18T02:25:02.973Z,1017.59
2023-05-18T02:26:02.605Z,1017.55
2023-05-18T02:27:02.943Z,1017.59
2023-05-18T02:28:02.140Z,1017.56
2023-05-18T02:29:01.998Z,1017.60
2023-05-18T02:30:02.151Z,1017.61
2023-05-18T02:31:02.065Z,1017.58
2023-05-18T02:32:02.157Z,1017.58
2023-05-18T02:33:02.260Z,1017.61
2023-05-18T02:34:02.605Z,1017.58
2023-05-18T02:35:02.140Z,1017.59
2023-05-18T02:36:02.819Z,1017.57
2023-05-18T02:37:02.588Z,1017.53
2023-05-18T02:38:02.450Z,1017.57
2023-05-18T02:39:02.631Z,1017.55
2023-05-18T02:40:02.567Z,1017.58
2023-05-18T02:41:02.882Z,1017.60
2023-05-18T02:42:02.651Z,1017.63
2023-05-18T02:43:02.454Z,1017.62
2023-05-18T02:44:02.592Z,1017.62
2023-05-18T02:45:02.971Z,1017.63
2023-05-18T02:46:02.766Z,1017.61
2023-05-18T02:47:02.376Z,1017.64
2023-05-18T02:48:01.965Z,1017.61
2023-05-18T02:49:02.319Z,1017.61
2023-05-18T02:50:01.869Z,1017.61
2023-05-18T02:51:01.821Z,1017.64
2023-05-18T02:52:01.929Z,1017.62
2023-05-18T02:53:02.779Z,1017.64
2023-05-18T02:54:02.384Z,1017.62
2023-05-18T02:55:02.610Z,1017.63
2023-05-18T02:56:02.322Z,1017.64
2023-05-18T02:57:02.948Z,1017.61
2023-05-18T02:58:02.616Z,1017.63
2023-05-18T02:59:02.767Z,1017.64
2023-05-18T03:00:02.633Z,1017.66
2023-05-18T03:01:02.785Z,1017.62
2023-05-18T03:02:02.802Z,1017.62
2023-05-18T03:03:03.893Z,1017.66
2023-05-18T03:04:03.645Z,1017.66
2023-05-18T03:05:03.505Z,1017.67
2023-05-18T03:06:03.306Z,1017.65
2023-05-18T03:07:03.755Z,1017.69
2023-05-18T03:08:03.380Z,1017.69
2023-05-18T03:09:03.718Z,1017.67
2023-05-18T03:10:03.336Z,1017.66
2023-05-18T03:11:03.588Z,1017.66
2023-05-18T03:12:03.751Z,1017.59
2023-05-18T03:13:03.308Z,1017.64
2023-05-18T03:14:03.452Z,1017.63
2023-05-18T03:15:03.179Z,1017.65
2023-05-18T03:16:02.978Z,1017.65
2023-05-18T03:17:02.759Z,1017.64
2023-05-18T03:18:03.590Z,1017.64
2023-05-18T03:19:03.398Z,1017.68
2023-05-18T03:20:03.616Z,1017.65
2023-05-18T03:21:03.543Z,1017.64
2023-05-18T03:22:03.510Z,1017.66
2023-05-18T03:23:03.387Z,1017.68
2023-05-18T03:24:02.991Z,1017.64
2023-05-18T03:25:03.243Z,1017.69
2023-05-18T03:26:03.453Z,1017.68
2023-05-18T03:27:03.180Z,1017.68
2023-05-18T03:28:02.810Z,1017.66
2023-05-18T03:29:02.944Z,1017.70
2023-05-18T03:30:02.528Z,1017.66
2023-05-18T03:31:03.040Z,1017.67
2023-05-18T03:32:02.646Z,1017.69
2023-05-18T03:33:03.247Z,1017.67
2023-05-18T03:34:03.442Z,1017.66
2023-05-18T03:35:03.295Z,1017.70
2023-05-18T03:36:03.207Z,1017.70
2023-05-18T03:37:03.163Z,1017.71
2023-05-18T03:38:02.842Z,1017.66
2023-05-18T03:39:02.661Z,1017.66
2023-05-18T03:40:02.558Z,1017.69
2023-05-18T03:41:02.953Z,1017.69
2023-05-18T03:42:02.998Z,1017.71
2023-05-18T03:43:03.458Z,1017.71
2023-05-18T03:44:03.445Z,1017.71
2023-05-18T03:45:02.881Z,1017.77
2023-05-18T03:46:02.962Z,1017.75
2023-05-18T03:47:03.075Z,1017.73
2023-05-18T03:48:02.886Z,1017.75
2023-05-18T03:49:02.923Z,1017.75
2023-05-18T03:50:02.856Z,1017.74
2023-05-18T03:51:02.864Z,1017.79
2023-05-18T03:52:02.582Z,1017.75
2023-05-18T03:53:03.208Z,1017.77
2023-05-18T03:54:03.282Z,1017.80
2023-05-18T03:55:03.181Z,1017.81
2023-05-18T03:56:03.055Z,1017.79
2023-05-18T03:57:02.897Z,1017.81
2023-05-18T03:58:03.548Z,1017.82
2023-05-18T03:59:03.392Z,1017.80
2023-05-18T04:00:03.144Z,1017.78
2023-05-18T04:01:03.459Z,1017.77
2023-05-18T04:02:03.382Z,1017.75
2023-05-18T04:03:02.916Z,1017.81
2023-05-18T04:04:03.318Z,1017.82
2023-05-18T04:05:03.092Z,1017.79
2023-05-18T04:06:02.979Z,1017.79
2023-05-18T04:07:02.886Z,1017.79
2023-05-18T04:08:02.580Z,1017.79
2023-05-18T04:09:02.440Z,1017.80
2023-05-18T04:10:02.407Z,1017.80
2023-05-18T04:11:02.433Z,1017.78
2023-05-18T04:12:02.531Z,1017.77
2023-05-18T04:13:02.661Z,1017.74
2023-05-18T04:14:02.280Z,1017.77
2023-05-18T04:15:02.146Z,1017.79
2023-05-18T04:16:02.567Z,1017.79
2023-05-18T04:17:02.514Z,1017.77
2023-05-18T04:18:03.279Z,1017.82
2023-05-18T04:19:04.425Z,1017.77
2023-05-18T04:20:03.067Z,1017.80
2023-05-18T04:21:02.933Z,1017.79
2023-05-18T04:22:02.881Z,1017.80
2023-05-18T04:23:02.345Z,1017.79
2023-05-18T04:24:02.330Z,1017.84
2023-05-18T04:25:02.567Z,1017.83
2023-05-18T04:26:02.505Z,1017.80
2023-05-18T04:27:02.061Z,1017.80
2023-05-18T04:28:03.045Z,1017.84
2023-05-18T04:29:02.780Z,1017.80
2023-05-18T04:30:02.675Z,1017.82
2023-05-18T04:31:02.684Z,1017.82
2023-05-18T04:32:02.836Z,1017.83
2023-05-18T04:33:02.683Z,1017.83
2023-05-18T04:34:02.405Z,1017.84
2023-05-18T04:35:02.391Z,1017.81
2023-05-18T04:36:02.378Z,1017.80
2023-05-18T04:37:02.380Z,1017.76
2023-05-18T04:38:02.004Z,1017.80
2023-05-18T04:39:02.092Z,1017.81
2023-05-18T04:40:02.076Z,1017.84
2023-05-18T04:41:02.452Z,1017.81
2023-05-18T04:42:02.213Z,1017.86
2023-05-18T04:43:02.321Z,1017.86
2023-05-18T04:44:02.780Z,1017.85
2023-05-18T04:45:02.972Z,1017.82
2023-05-18T04:46:02.718Z,1017.79
2023-05-18T04:47:02.651Z,1017.84
2023-05-18T04:48:02.369Z,1017.85
2023-05-18T04:49:02.963Z,1017.90
2023-05-18T04:50:02.668Z,1017.87
2023-05-18T04:51:02.586Z,1017.89
2023-05-18T04:52:02.752Z,1017.85
2023-05-18T04:53:01.982Z,1017.86
2023-05-18T04:54:02.298Z,1017.88
2023-05-18T04:55:02.480Z,1017.87
2023-05-18T04:56:02.560Z,1017.89
2023-05-18T04:57:02.117Z,1017.86
2023-05-18T04:58:02.067Z,1017.89
2023-05-18T04:59:02.260Z,1017.87
2023-05-18T05:00:02.023Z,1017.88
2023-05-18T05:01:02.420Z,1017.86
2023-05-18T05:02:02.491Z,1017.86
2023-05-18T05:03:02.635Z,1017.89
2023-05-18T05:04:02.705Z,1017.89
2023-05-18T05:05:02.911Z,1017.88
2023-05-18T05:06:02.962Z,1017.88
2023-05-18T05:07:02.867Z,1017.88
2023-05-18T05:08:02.910Z,1017.89
2023-05-18T05:09:03.166Z,1017.91
2023-05-18T05:10:02.980Z,1017.87
2023-05-18T05:11:03.059Z,1017.90
2023-05-18T05:12:03.320Z,1017.91
2023-05-18T05:13:02.311Z,1017.93
2023-05-18T05:14:02.587Z,1017.91
2023-05-18T05:15:02.668Z,1017.92
2023-05-18T05:16:02.368Z,1017.92
2023-05-18T05:17:02.456Z,1017.92
2023-05-18T05:18:02.520Z,1017.91
2023-05-18T05:19:02.672Z,1017.97
2023-05-18T05:20:02.619Z,1017.94
2023-05-18T05:21:02.986Z,1017.97
2023-05-18T05:22:02.723Z,1017.97
2023-05-18T05:23:02.790Z,1017.96
2023-05-18T05:24:02.714Z,1017.99
2023-05-18T05:25:05.120Z,1018.00
2023-05-18T05:26:02.750Z,1017.91
2023-05-18T05:27:02.698Z,1017.93
2023-05-18T05:28:02.375Z,1017.95
2023-05-18T05:29:02.424Z,1017.93
2023-05-18T05:30:02.256Z,1017.99
2023-05-18T05:31:02.401Z,1017.99
2023-05-18T05:32:02.517Z,1017.98
2023-05-18T05:33:02.641Z,1017.99
2023-05-18T05:34:02.592Z,1018.00
2023-05-18T05:35:02.500Z,1017.99
2023-05-18T05:36:02.544Z,1018.00
2023-05-18T05:37:02.375Z,1018.02
2023-05-18T05:38:02.770Z,1017.99
2023-05-18T05:39:02.744Z,1017.99
2023-05-18T05:40:02.757Z,1017.98
2023-05-18T05:41:02.844Z,1017.99
2023-05-18T05:42:02.976Z,1018.03
2023-05-18T05:43:03.081Z,1017.98
2023-05-18T05:44:03.061Z,1018.01
2023-05-18T05:45:03.373Z,1018.00
2023-05-18T05:46:03.180Z,1018.00
2023-05-18T05:47:03.314Z,1018.03
2023-05-18T05:48:02.558Z,1018.00
2023-05-18T05:49:02.627Z,1018.01
2023-05-18T05:50:02.928Z,1018.01
2023-05-18T05:51:02.857Z,1017.99
2023-05-18T05:52:02.819Z,1017.99
2023-05-18T05:53:02.574Z,1017.96
2023-05-18T05:54:02.596Z,1017.96
2023-05-18T05:55:02.732Z,1017.95
2023-05-18T05:56:02.815Z,1017.91
2023-05-18T05:57:02.790Z,1017.96
2023-05-18T05:58:02.936Z,1017.98
2023-05-18T05:59:03.204Z,1017.98
2023-05-18T06:00:02.901Z,1017.98
2023-05-18T06:01:03.010Z,1017.95
2023-05-18T06:02:02.982Z,1017.96
2023-05-18T06:03:02.235Z,1017.97
2023-05-18T06:04:02.158Z,1018.00
2023-05-18T06:05:02.196Z,1018.05
2023-05-18T06:06:02.273Z,1018.08
2023-05-18T06:07:02.238Z,1018.02
2023-05-18T06:08:02.611Z,1018.06
2023-05-18T06:09:02.392Z,1018.03
2023-05-18T06:10:02.883Z,1018.02
2023-05-18T06:11:02.919Z,1018.03
2023-05-18T06:12:02.952Z,1018.03
2023-05-18T06:13:01.952Z,1018.08
2023-05-18T06:14:02.349Z,1018.05
2023-05-18T06:15:02.057Z,1018.10
2023-05-18T06:16:01.675Z,1018.02
2023-05-18T06:17:01.760Z,1018.01
2023-05-18T06:18:02.003Z,1018.00
2023-05-18T06:19:02.359Z,1018.04
2023-05-18T06:20:01.952Z,1018.05
2023-05-18T06:21:01.891Z,1018.05
2023-05-18T06:22:01.992Z,1018.07
2023-05-18T06:23:02.813Z,1018.06
2023-05-18T06:24:02.682Z,1018.06
2023-05-18T06:25:02.707Z,1018.11
2023-05-18T06:26:02.782Z,1018.12
2023-05-18T06:27:03.052Z,1018.11
2023-05-18T06:28:02.087Z,1018.14
2023-05-18T06:29:01.819Z,1018.16
2023-05-18T06:30:02.281Z,1018.16
2023-05-18T06:31:02.297Z,1018.18
2023-05-18T06:32:02.403Z,1018.21
2023-05-18T06:33:02.200Z,1018.21
2023-05-18T06:34:02.406Z,1018.21
2023-05-18T06:35:02.284Z,1018.26
2023-05-18T06:36:02.141Z,1018.28
2023-05-18T06:37:02.133Z,1018.28
2023-05-18T06:38:02.238Z,1018.28
2023-05-18T06:39:02.377Z,1018.30
2023-05-18T06:40:02.544Z,1018.29
2023-05-18T06:41:02.162Z,1018.31
2023-05-18T06:42:02.016Z,1018.27
2023-05-18T06:43:02.929Z,1018.29
2023-05-18T06:44:02.879Z,1018.29
2023-05-18T06:45:03.120Z,1018.26
2023-05-18T06:46:03.386Z,1018.25
2023-05-18T06:47:02.543Z,1018.22
2023-05-18T06:48:02.048Z,1018.19
2023-05-18T06:49:01.654Z,1018.21
2023-05-18T06:50:01.580Z,1018.17
2023-05-18T06:51:01.772Z,1018.20
2023-05-18T06:52:01.919Z,1018.17
2023-05-18T06:53:02.645Z,1018.20
2023-05-18T06:54:02.803Z,1018.21
2023-05-18T06:55:02.374Z,1018.18
2023-05-18T06:56:02.903Z,1018.22
2023-05-18T06:57:02.623Z,1018.17
2023-05-18T06:58:02.736Z,1018.19
2023-05-18T06:59:02.762Z,1018.17
2023-05-18T07:00:02.983Z,1018.17
2023-05-18T07:01:02.847Z,1018.19
2023-05-18T07:02:02.848Z,1018.19
2023-05-18T07:03:02.873Z,1018.20
2023-05-18T07:04:02.655Z,1018.16
2023-05-18T07:05:02.637Z,1018.17
2023-05-18T07:06:02.428Z,1018.15
2023-05-18T07:07:02.868Z,1018.13
2023-05-18T07:08:03.050Z,1018.12
2023-05-18T07:09:03.073Z,1018.12
2023-05-18T07:10:02.811Z,1018.10
2023-05-18T07:11:03.055Z,1018.11
2023-05-18T07:12:02.978Z,1018.12
2023-05-18T07:13:02.975Z,1018.11
2023-05-18T07:14:03.047Z,1018.09
2023-05-18T07:15:03.310Z,1018.12
2023-05-18T07:16:03.265Z,1018.08
2023-05-18T07:17:02.925Z,1018.13
2023-05-18T07:18:02.792Z,1018.10
2023-05-18T07:19:02.423Z,1018.07
2023-05-18T07:20:02.615Z,1018.07
2023-05-18T07:21:02.510Z,1018.04
2023-05-18T07:22:02.805Z,1018.10
2023-05-18T07:23:02.296Z,1018.07
2023-05-18T07:24:02.093Z,1018.06
2023-05-18T07:25:01.941Z,1018.12
2023-05-18T07:26:02.083Z,1018.11
2023-05-18T07:27:02.169Z,1018.09
2023-05-18T07:28:02.464Z,1018.10
2023-05-18T07:29:01.984Z,1018.10
2023-05-18T07:30:02.538Z,1018.08
2023-05-18T07:31:02.215Z,1018.09
2023-05-18T07:32:02.547Z,1018.03
2023-05-18T07:33:02.600Z,1018.04
2023-05-18T07:34:02.589Z,1018.09
2023-05-18T07:35:02.399Z,1018.06
2023-05-18T07:36:02.219Z,1018.03
2023-05-18T07:37:02.751Z,1018.02
2023-05-18T07:38:02.504Z,1018.04
2023-05-18T07:39:02.197Z,1017.99
2023-05-18T07:40:02.565Z,1018.01
2023-05-18T07:41:02.399Z,1017.99
2023-05-18T07:42:02.710Z,1017.95
2023-05-18T07:43:02.333Z,1017.97
2023-05-18T07:44:02.003Z,1017.92
2023-05-18T07:45:02.179Z,1017.93
2023-05-18T07:46:02.029Z,1017.94
2023-05-18T07:47:02.246Z,1017.90
2023-05-18T07:48:02.983Z,1017.94
2023-05-18T07:49:02.945Z,1017.90
2023-05-18T07:50:02.848Z,1017.91
2023-05-18T07:51:02.342Z,1017.91
2023-05-18T07:52:02.525Z,1017.92
2023-05-18T07:53:03.004Z,1017.91
2023-05-18T07:54:02.705Z,1017.86
2023-05-18T07:55:02.888Z,1017.86
2023-05-18T07:56:03.033Z,1017.85
2023-05-18T07:57:03.111Z,1017.90
2023-05-18T07:58:02.673Z,1017.87
2023-05-18T07:59:02.531Z,1017.84
2023-05-18T08:00:02.639Z,1017.82
2023-05-18T08:01:02.448Z,1017.85
2023-05-18T08:02:02.290Z,1017.82
2023-05-18T08:03:01.759Z,1017.84
2023-05-18T08:04:01.853Z,1017.84
2023-05-18T08:05:01.584Z,1017.88
2023-05-18T08:06:02.008Z,1017.87
2023-05-18T08:07:01.953Z,1017.86
2023-05-18T08:08:02.628Z,1017.83
2023-05-18T08:09:02.581Z,1017.83
2023-05-18T08:10:02.155Z,1017.80
2023-05-18T08:11:02.314Z,1017.79
2023-05-18T08:12:02.004Z,1017.77
2023-05-18T08:13:02.129Z,1017.80
2023-05-18T08:14:02.256Z,1017.79
2023-05-18T08:15:02.157Z,1017.79
2023-05-18T08:16:11.075Z,1017.80
2023-05-18T08:17:02.715Z,1017.77
2023-05-18T08:18:02.409Z,1017.72
2023-05-18T08:19:02.527Z,1017.77
2023-05-18T08:20:02.888Z,1017.74
2023-05-18T08:21:02.898Z,1017.69
2023-05-18T08:22:02.937Z,1017.66
2023-05-18T08:23:02.781Z,1017.70
2023-05-18T08:24:02.382Z,1017.68
2023-05-18T08:25:01.852Z,1017.69
2023-05-18T08:26:01.992Z,1017.66
2023-05-18T08:27:02.056Z,1017.65
2023-05-18T08:28:01.866Z,1017.63
2023-05-18T08:29:02.375Z,1017.65
2023-05-18T08:30:02.493Z,1017.70
2023-05-18T08:31:02.682Z,1017.60
2023-05-18T08:32:02.673Z,1017.62
2023-05-18T08:33:02.676Z,1017.62
2023-05-18T08:34:01.873Z,1017.59
2023-05-18T08:35:02.246Z,1017.61
2023-05-18T08:36:02.133Z,1017.60
2023-05-18T08:37:02.356Z,1017.57
2023-05-18T08:38:02.978Z,1017.56
2023-05-18T08:39:02.817Z,1017.55
2023-05-18T08:40:02.717Z,1017.54
2023-05-18T08:41:02.857Z,1017.54
2023-05-18T08:42:02.521Z,1017.56
2023-05-18T08:43:02.689Z,1017.57
2023-05-18T08:44:02.994Z,1017.53
2023-05-18T08:45:02.830Z,1017.47
2023-05-18T08:46:02.710Z,1017.46
2023-05-18T08:47:02.572Z,1017.49
2023-05-18T08:48:02.748Z,1017.49
2023-05-18T08:49:02.220Z,1017.49
2023-05-18T08:50:01.536Z,1017.46
2023-05-18T08:51:01.871Z,1017.48
2023-05-18T08:52:01.978Z,1017.47
2023-05-18T08:53:01.661Z,1017.46
2023-05-18T08:54:02.349Z,1017.45
2023-05-18T08:55:02.426Z,1017.47
2023-05-18T08:56:02.460Z,1017.44
2023-05-18T08:57:02.265Z,1017.48
2023-05-18T08:58:02.355Z,1017.49
2023-05-18T08:59:02.022Z,1017.45
2023-05-18T09:00:01.955Z,1017.44
2023-05-18T09:01:01.725Z,1017.42
2023-05-18T09:02:01.995Z,1017.45
2023-05-18T09:03:02.179Z,1017.40
2023-05-18T09:04:02.353Z,1017.40
2023-05-18T09:05:02.417Z,1017.42
2023-05-18T09:06:02.455Z,1017.41
2023-05-18T09:07:01.827Z,1017.37
2023-05-18T09:08:01.862Z,1017.42
2023-05-18T09:09:02.734Z,1017.45
2023-05-18T09:10:02.568Z,1017.49
2023-05-18T09:11:02.385Z,1017.44
2023-05-18T09:12:02.454Z,1017.41
2023-05-18T09:13:02.738Z,1017.38
2023-05-18T09:14:02.515Z,1017.43
2023-05-18T09:15:02.694Z,1017.43
2023-05-18T09:16:02.724Z,1017.39
2023-05-18T09:17:02.557Z,1017.42
2023-05-18T09:18:02.466Z,1017.39
2023-05-18T09:19:02.772Z,1017.42
2023-05-18T09:20:02.712Z,1017.37
2023-05-18T09:21:03.264Z,1017.39
2023-05-18T09:22:03.273Z,1017.41
2023-05-18T09:23:03.157Z,1017.40
2023-05-18T09:24:02.766Z,1017.39
2023-05-18T09:25:02.393Z,1017.37
2023-05-18T09:26:02.547Z,1017.33
2023-05-18T09:27:02.446Z,1017.31
2023-05-18T09:28:02.683Z,1017.29
2023-05-18T09:29:02.350Z,1017.33
2023-05-18T09:30:02.658Z,1017.31
2023-05-18T09:31:02.378Z,1017.33
2023-05-18T09:32:02.847Z,1017.35
2023-05-18T09:33:02.435Z,1017.31
2023-05-18T09:34:02.550Z,1017.29
2023-05-18T09:35:02.410Z,1017.27
2023-05-18T09:36:02.564Z,1017.30
2023-05-18T09:37:02.804Z,1017.33
2023-05-18T09:38:02.992Z,1017.24
2023-05-18T09:39:02.312Z,1017.27
2023-05-18T09:40:02.465Z,1017.28
2023-05-18T09:41:02.573Z,1017.29
2023-05-18T09:42:02.534Z,1017.27
2023-05-18T09:43:02.622Z,1017.27
2023-05-18T09:44:02.990Z,1017.27
2023-05-18T09:45:02.812Z,1017.27
2023-05-18T09:46:02.924Z,1017.23
2023-05-18T09:47:03.427Z,1017.25
2023-05-18T09:48:02.890Z,1017.23
2023-05-18T09:49:02.624Z,1017.26
2023-05-18T09:50:02.811Z,1017.23
2023-05-18T09:51:03.226Z,1017.22
2023-05-18T09:52:03.171Z,1017.22
2023-05-18T09:53:02.612Z,1017.20
2023-05-18T09:54:02.812Z,1017.19
2023-05-18T09:55:03.015Z,1017.21
2023-05-18T09:56:02.870Z,1017.21
2023-05-18T09:57:10.688Z,1017.17
2023-05-18T09:58:02.892Z,1017.17
2023-05-18T09:59:02.411Z,1017.18
2023-05-18T10:00:02.099Z,1017.19
2023-05-18T10:01:02.291Z,1017.13
2023-05-18T10:02:02.674Z,1017.16
2023-05-18T10:03:02.328Z,1017.14
2023-05-18T10:04:03.130Z,1017.12
2023-05-18T10:05:02.650Z,1017.11
2023-05-18T10:06:02.903Z,1017.08
2023-05-18T10:07:03.011Z,1017.06
2023-05-18T10:08:02.573Z,1017.03
2023-05-18T10:09:03.269Z,1017.03
2023-05-18T10:10:02.903Z,1017.02
2023-05-18T10:11:02.759Z,1017.06
2023-05-18T10:12:03.213Z,1017.03
2023-05-18T10:13:03.081Z,1016.99
2023-05-18T10:14:02.797Z,1017.04
2023-05-18T10:15:02.893Z,1016.99
2023-05-18T10:16:02.330Z,1017.03
2023-05-18T10:18:02.767Z,1017.03
2023-05-18T10:19:02.879Z,1017.03
2023-05-18T10:20:03.062Z,1017.05
2023-05-18T10:21:02.810Z,1016.96
2023-05-18T10:22:03.035Z,1016.98
2023-05-18T10:23:02.722Z,1016.95
2023-05-18T10:24:02.956Z,1016.89
2023-05-18T10:25:03.018Z,1016.91
2023-05-18T10:26:03.244Z,1016.88
2023-05-18T10:27:03.402Z,1016.88
2023-05-18T10:28:02.814Z,1016.90
2023-05-18T10:29:02.591Z,1016.96
2023-05-18T10:30:02.926Z,1016.93
2023-05-18T10:31:02.953Z,1016.86
2023-05-18T10:32:04.472Z,1016.89
2023-05-18T10:33:03.960Z,1016.87
2023-05-18T10:34:03.005Z,1016.84
2023-05-18T10:35:02.526Z,1016.83
2023-05-18T10:36:02.989Z,1016.80
2023-05-18T10:37:02.570Z,1016.78
2023-05-18T10:38:02.553Z,1016.82
2023-05-18T10:39:03.056Z,1016.85
2023-05-18T10:40:02.940Z,1016.84
2023-05-18T10:41:03.011Z,1016.82
2023-05-18T10:42:02.917Z,1016.83
2023-05-18T10:43:02.763Z,1016.80
2023-05-18T10:44:03.361Z,1016.80
2023-05-18T10:45:02.909Z,1016.80
2023-05-18T10:46:03.103Z,1016.79
2023-05-18T10:47:03.351Z,1016.77
2023-05-18T10:48:03.199Z,1016.78
2023-05-18T10:49:02.543Z,1016.79
2023-05-18T10:50:02.642Z,1016.74
2023-05-18T10:51:02.612Z,1016.75
2023-05-18T10:52:02.608Z,1016.72
2023-05-18T10:53:02.778Z,1016.72
2023-05-18T10:54:02.952Z,1016.72
2023-05-18T10:55:03.071Z,1016.74
2023-05-18T10:56:03.232Z,1016.73
2023-05-18T10:57:02.930Z,1016.77
2023-05-18T10:58:02.820Z,1016.71
2023-05-18T10:59:03.051Z,1016.73
2023-05-18T11:00:02.705Z,1016.73
2023-05-18T11:01:03.137Z,1016.67
2023-05-18T11:02:02.939Z,1016.65
2023-05-18T11:03:03.138Z,1016.63
2023-05-18T11:04:02.334Z,1016.61
2023-05-18T11:05:02.149Z,1016.63
2023-05-18T11:06:02.459Z,1016.58
2023-05-18T11:07:02.453Z,1016.62
2023-05-18T11:08:02.490Z,1016.58
2023-05-18T11:09:02.754Z,1016.55
2023-05-18T11:10:02.469Z,1016.57
2023-05-18T11:11:02.802Z,1016.53
2023-05-18T11:12:02.379Z,1016.48
2023-05-18T11:13:02.548Z,1016.48
2023-05-18T11:14:02.219Z,1016.51
2023-05-18T11:15:02.457Z,1016.48
2023-05-18T11:16:02.907Z,1016.49
2023-05-18T11:17:02.836Z,1016.46
2023-05-18T11:18:02.616Z,1016.45
2023-05-18T11:19:03.005Z,1016.52
2023-05-18T11:20:02.699Z,1016.50
2023-05-18T11:21:02.599Z,1016.47
2023-05-18T11:22:02.507Z,1016.45
2023-05-18T11:23:02.789Z,1016.52
2023-05-18T11:24:02.019Z,1016.47
2023-05-18T11:25:01.996Z,1016.51
2023-05-18T11:26:02.083Z,1016.44
2023-05-18T11:27:02.093Z,1016.40
2023-05-18T11:28:01.998Z,1016.44
2023-05-18T11:29:01.902Z,1016.42
2023-05-18T11:30:14.913Z,1016.36
2023-05-18T11:31:02.343Z,1016.38
2023-05-18T11:32:02.564Z,1016.36
2023-05-18T11:33:02.214Z,1016.36
2023-05-18T11:34:02.867Z,1016.36
2023-05-18T11:35:02.594Z,1016.38
2023-05-18T11:36:02.762Z,1016.35
2023-05-18T11:37:02.961Z,1016.34
2023-05-18T11:38:02.923Z,1016.30
2023-05-18T11:39:02.053Z,1016.30
2023-05-18T11:40:05.606Z,1016.28
2023-05-18T11:41:01.970Z,1016.27
2023-05-18T11:42:01.865Z,1016.25
2023-05-18T11:43:02.190Z,1016.29
2023-05-18T11:44:02.642Z,1016.27
2023-05-18T11:45:01.999Z,1016.29
2023-05-18T11:46:02.660Z,1016.33
2023-05-18T11:47:02.649Z,1016.29
2023-05-18T11:48:02.394Z,1016.26
2023-05-18T11:49:02.193Z,1016.26
2023-05-18T11:50:02.261Z,1016.26
2023-05-18T11:51:02.642Z,1016.29
2023-05-18T11:52:02.661Z,1016.27
2023-05-18T11:53:02.288Z,1016.26
2023-05-18T11:54:02.519Z,1016.25
2023-05-18T11:55:02.327Z,1016.23
2023-05-18T11:56:02.665Z,1016.19
2023-05-18T11:57:02.165Z,1016.18
2023-05-18T11:58:02.236Z,1016.18
2023-05-18T11:59:02.299Z,1016.13
2023-05-18T12:00:02.140Z,1016.07
2023-05-18T12:01:02.281Z,1016.14
2023-05-18T12:02:01.862Z,1016.10
2023-05-18T12:03:02.323Z,1016.12
2023-05-18T12:04:02.562Z,1016.09
2023-05-18T12:05:02.309Z,1016.06
2023-05-18T12:06:02.740Z,1016.04